Terminal Aerodrome Forecast
Issued by NWS

Home | Current Version | Previous Version | Text Only | Print | Product List | Glossary On
Versions: 1 2 3 4 5 6 7 8 9 10 11 12
000
FTUS46 KHNX 201735
TAFMCE
TAF
KMCE 201735Z 2018/2118 31009KT P6SM FEW150
     FM210000 32014G22KT P6SM SCT050 BKN070
     FM210700 32008KT P6SM FEW050 SCT100=

USA.gov is the U.S. government's official web portal to all federal, state and local government web resources and services.